Sand Springs, Arizona
Current Conditions -  °F | °C
As of 6:56 PM on Saturday 25 Oct 2014 (Local Time) from KINW Reporting Station
Clear Clear  
Wind Chill: 66°   Ceiling: Unl
Heat Index: 66°   Visibility: 10mi
Dew Point: 44°   Wind: 7mph
Humidity: 45%   Direction: 200°SSW
Pressure: 30.17"   Gusts: NA
Location:  35.8773°N, 110.619°W
Report Text: KINW 260156Z AUTO 20006KT 10SM CLR 19/07 A3017 RMK AO2 SLP174 T01890067
Loading
Personal Weather Stations






























Interactive Weather Map
Tropical Storm Tracking
New forecast layout! Learn more

10-Day Weather Forecast

Advertisements
Track Severe Weather on mobile